Logan Cache Airport
KLGU : rendu visible

Aérodrome :











RETROUVEZ-NOUS SUR...

 
LOGIN :

S'inscrire | Disclaimer

   EN    FR    IT 

 









Légende :    VFR   VFR Marginal   IFR   IFR Intensif   IFR Très Intensif
Visi : 
Plafond : 
>= 8 km
>= 3000ft
5 à 8 km
1000 à 3000 ft
1500m à 5 km
500 à 1000 ft
800 à 1500m
200 à 500 ft
< 800m
< 200 ft
Symboles :   Orages  Brouillard  Fortes neiges  Fortes précipitations  Vent > 20 kt






- Altitude de l'aérodrome : 4457 ft


KLGU - Logan Cache

DERNIER METAR :
  • 222251Z AUTO 00000KT 10SM OVC049 05/M01 A3022 RMK AO2 SLP242 T00501011

METARs EXPIRÉS :
  • 222151Z AUTO 00000KT 10SM OVC043 06/M01 A3022 RMK AO2 SLP241 T00561011
  • 222051Z AUTO 00000KT 10SM OVC044 04/M02 A3022 RMK AO2 SLP242 T00441017 56008

TAF KLGU
Valide du 22 à 21h jusqu'au 23 à 18h UTC


222114Z 2221/2318 VRB03KT P6SM OVC040
FM222300 VRB03KT P6SM SCT050



MET'MAP, la Météo Aéronautique d'un coup d'oeil ! - Copyright ORBIFLY Décembre 2007 - Disclaimer

ORBIFLY MET'MAP TEAM :

Programmation & Développement : Alexandra Zaïnal
Conception & Développement : Baudouin d'Aumeries
Co-Programmation & Développement : Marc-Olivier Méhu
Soutien technique & logistique : Manuel Goepfert

Contact : metmap@orbifly.com




SOURCES & CREDITS :

   NOAA       Earth
Advisory